-7.9C
переменная облачность
переменная облачность
Дата и времяТемператураДавление, мм рт.ст.Влажность, %Осадки
МинимумМаксимум
14.04.2024 08:00-7.8C-7.61C75081переменная облачность
14.04.2024 11:00-6.18C-5.32C75179облачно с прояснениями
14.04.2024 14:00-4.61C-4.61C75476пасмурно
14.04.2024 17:00-5.37C-5.37C75681пасмурно
14.04.2024 20:00-8.82C-8.82C75885облачно с прояснениями
14.04.2024 23:00-11.24C-11.24C75990переменная облачность
15.04.2024 02:00-13.62C-13.62C76092ясно
15.04.2024 05:00-14.96C-14.96C76292небольшая облачность
15.04.2024 08:00-10.64C-10.64C76369небольшая облачность
15.04.2024 11:00-6.54C-6.54C76470небольшая облачность
15.04.2024 14:00-4.47C-4.47C76570пасмурно
15.04.2024 17:00-4C-4C76570облачно с прояснениями
15.04.2024 20:00-8.26C-8.26C76587переменная облачность
15.04.2024 23:00-6.74C-6.74C76587небольшая облачность
16.04.2024 02:00-6.32C-6.32C76583небольшая облачность
16.04.2024 05:00-5.98C-5.98C76486переменная облачность
16.04.2024 08:00-1.3C-1.3C76481переменная облачность
16.04.2024 11:002.43C2.43C76381переменная облачность
16.04.2024 14:004.43C4.43C76275переменная облачность
16.04.2024 17:004.06C4.06C76172небольшая облачность
16.04.2024 20:001.49C1.49C76079небольшая облачность
16.04.2024 23:001.45C1.45C75982переменная облачность
17.04.2024 02:001.48C1.48C75685пасмурно
17.04.2024 05:001.45C1.45C75395снег
17.04.2024 08:001.27C1.27C75298небольшой дождь
17.04.2024 11:002.44C2.44C75298небольшой дождь
17.04.2024 14:006.26C6.26C75292пасмурно
17.04.2024 17:003.76C3.76C75299небольшой дождь
17.04.2024 20:001.61C1.61C75398небольшой дождь
17.04.2024 23:000.58C0.58C75393облачно с прояснениями
18.04.2024 02:000.43C0.43C75094пасмурно
18.04.2024 05:001.68C1.68C74696небольшой дождь
18.04.2024 08:002.08C2.08C74499дождь
18.04.2024 11:006.51C6.51C74393небольшой дождь
18.04.2024 14:002.21C2.21C74597небольшой дождь
18.04.2024 17:001.48C1.48C75097небольшой дождь
18.04.2024 20:000.6C0.6C75493пасмурно
18.04.2024 23:00-1.9C-1.9C75887пасмурно
19.04.2024 02:00-5.11C-5.11C76083пасмурно
19.04.2024 05:00-7.63C-7.63C76380пасмурно
Дата и время наблюдения: 14.04.2024 05:50:47